sensor_id;sensor_type;location;lat;lon;timestamp;pressure;altitude;pressure_sealevel;temperature;humidity
61573;BME280;47465;43.094;12.434;2023-05-03T00:00:17;98434.59;;;15.02;99.63
61573;BME280;47465;43.094;12.434;2023-05-03T00:02:43;98428.97;;;14.89;100.00
61573;BME280;47465;43.094;12.434;2023-05-03T00:05:10;98422.38;;;14.79;100.00
61573;BME280;47465;43.094;12.434;2023-05-03T00:07:37;98437.53;;;14.78;100.00
61573;BME280;47465;43.094;12.434;2023-05-03T00:10:06;98432.50;;;14.72;100.00
61573;BME280;47465;43.094;12.434;2023-05-03T00:12:34;98411.25;;;14.69;100.00
61573;BME280;47465;43.094;12.434;2023-05-03T00:15:00;98405.31;;;14.63;100.00
61573;BME280;47465;43.094;12.434;2023-05-03T00:17:26;98422.91;;;14.68;100.00
61573;BME280;47465;43.094;12.434;2023-05-03T00:19:52;98413.06;;;14.69;100.00
61573;BME280;47465;43.094;12.434;2023-05-03T00:22:20;98412.50;;;14.62;100.00
61573;BME280;47465;43.094;12.434;2023-05-03T00:24:46;98430.53;;;14.76;100.00
61573;BME280;47465;43.094;12.434;2023-05-03T00:27:13;98426.94;;;14.77;100.00
61573;BME280;47465;43.094;12.434;2023-05-03T00:29:41;98419.22;;;14.71;100.00
61573;BME280;47465;43.094;12.434;2023-05-03T00:32:07;98402.81;;;14.60;100.00
61573;BME280;47465;43.094;12.434;2023-05-03T00:34:35;98437.78;;;14.74;100.00
61573;BME280;47465;43.094;12.434;2023-05-03T00:37:01;98394.09;;;14.54;100.00
61573;BME280;47465;43.094;12.434;2023-05-03T00:39:28;98420.06;;;14.71;100.00
61573;BME280;47465;43.094;12.434;2023-05-03T00:41:55;98416.38;;;14.74;100.00
61573;BME280;47465;43.094;12.434;2023-05-03T00:44:21;98400.47;;;14.71;100.00
61573;BME280;47465;43.094;12.434;2023-05-03T00:46:49;98389.44;;;14.60;100.00
61573;BME280;47465;43.094;12.434;2023-05-03T00:49:15;98410.50;;;14.66;100.00
61573;BME280;47465;43.094;12.434;2023-05-03T00:51:41;98409.13;;;14.76;100.00
61573;BME280;47465;43.094;12.434;2023-05-03T00:54:07;98417.09;;;14.77;100.00
61573;BME280;47465;43.094;12.434;2023-05-03T00:56:33;98405.03;;;14.69;100.00
61573;BME280;47465;43.094;12.434;2023-05-03T00:59:00;98431.34;;;14.78;100.00
61573;BME280;47465;43.094;12.434;2023-05-03T01:01:26;98420.47;;;14.81;100.00
61573;BME280;47465;43.094;12.434;2023-05-03T01:03:55;98422.84;;;14.87;99.90
61573;BME280;47465;43.094;12.434;2023-05-03T01:06:31;98409.97;;;14.76;99.81
61573;BME280;47465;43.094;12.434;2023-05-03T01:09:02;98425.81;;;14.81;100.00
61573;BME280;47465;43.094;12.434;2023-05-03T01:11:32;98434.34;;;14.89;99.72
61573;BME280;47465;43.094;12.434;2023-05-03T01:14:07;98421.41;;;14.80;99.99
61573;BME280;47465;43.094;12.434;2023-05-03T01:16:38;98428.50;;;14.81;100.00
61573;BME280;47465;43.094;12.434;2023-05-03T01:19:18;98420.56;;;14.79;100.00
61573;BME280;47465;43.094;12.434;2023-05-03T01:21:56;98420.84;;;14.73;100.00
61573;BME280;47465;43.094;12.434;2023-05-03T01:24:25;98426.28;;;14.72;100.00
61573;BME280;47465;43.094;12.434;2023-05-03T01:26:54;98419.03;;;14.74;100.00
61573;BME280;47465;43.094;12.434;2023-05-03T01:29:19;98408.97;;;14.62;100.00
61573;BME280;47465;43.094;12.434;2023-05-03T01:31:50;98416.75;;;14.66;100.00
61573;BME280;47465;43.094;12.434;2023-05-03T01:34:24;98416.75;;;14.66;100.00
61573;BME280;47465;43.094;12.434;2023-05-03T01:36:57;98390.00;;;14.47;100.00
61573;BME280;47465;43.094;12.434;2023-05-03T01:39:27;98396.84;;;14.53;100.00
61573;BME280;47465;43.094;12.434;2023-05-03T01:41:58;98422.34;;;14.62;100.00
61573;BME280;47465;43.094;12.434;2023-05-03T01:44:25;98401.25;;;14.54;100.00
61573;BME280;47465;43.094;12.434;2023-05-03T01:46:51;98395.41;;;14.46;100.00
61573;BME280;47465;43.094;12.434;2023-05-03T01:49:18;98422.19;;;14.65;100.00
61573;BME280;47465;43.094;12.434;2023-05-03T01:51:43;98429.13;;;14.69;100.00
61573;BME280;47465;43.094;12.434;2023-05-03T01:54:09;98416.09;;;14.61;100.00
61573;BME280;47465;43.094;12.434;2023-05-03T01:56:36;98412.88;;;14.53;100.00
61573;BME280;47465;43.094;12.434;2023-05-03T01:59:03;98397.41;;;14.42;100.00
61573;BME280;47465;43.094;12.434;2023-05-03T02:01:29;98405.69;;;14.55;100.00
61573;BME280;47465;43.094;12.434;2023-05-03T02:03:55;98427.53;;;14.65;100.00
61573;BME280;47465;43.094;12.434;2023-05-03T02:06:21;98433.75;;;14.65;100.00
61573;BME280;47465;43.094;12.434;2023-05-03T02:08:48;98432.16;;;14.61;100.00
61573;BME280;47465;43.094;12.434;2023-05-03T02:11:14;98438.22;;;14.65;100.00
61573;BME280;47465;43.094;12.434;2023-05-03T02:13:40;98406.63;;;14.54;100.00
61573;BME280;47465;43.094;12.434;2023-05-03T02:16:07;98422.84;;;14.51;100.00
61573;BME280;47465;43.094;12.434;2023-05-03T02:18:33;98433.19;;;14.58;100.00
61573;BME280;47465;43.094;12.434;2023-05-03T02:21:00;98425.41;;;14.52;100.00
61573;BME280;47465;43.094;12.434;2023-05-03T02:23:26;98425.50;;;14.51;100.00
61573;BME280;47465;43.094;12.434;2023-05-03T02:25:51;98435.19;;;14.53;100.00
61573;BME280;47465;43.094;12.434;2023-05-03T02:28:17;98421.00;;;14.51;100.00
61573;BME280;47465;43.094;12.434;2023-05-03T02:30:43;98425.94;;;14.42;100.00
61573;BME280;47465;43.094;12.434;2023-05-03T02:33:10;98439.81;;;14.50;100.00
61573;BME280;47465;43.094;12.434;2023-05-03T02:35:36;98407.38;;;14.38;100.00
61573;BME280;47465;43.094;12.434;2023-05-03T02:38:02;98405.72;;;14.36;100.00
61573;BME280;47465;43.094;12.434;2023-05-03T02:40:28;98420.44;;;14.45;100.00
61573;BME280;47465;43.094;12.434;2023-05-03T02:42:54;98426.50;;;14.48;100.00
61573;BME280;47465;43.094;12.434;2023-05-03T02:45:19;98428.78;;;14.57;100.00
61573;BME280;47465;43.094;12.434;2023-05-03T02:47:45;98432.88;;;14.46;100.00
61573;BME280;47465;43.094;12.434;2023-05-03T02:50:13;98430.59;;;14.38;100.00
61573;BME280;47465;43.094;12.434;2023-05-03T02:52:38;98441.84;;;14.45;100.00
61573;BME280;47465;43.094;12.434;2023-05-03T02:55:05;98431.56;;;14.35;100.00
61573;BME280;47465;43.094;12.434;2023-05-03T02:57:31;98455.63;;;14.54;100.00
61573;BME280;47465;43.094;12.434;2023-05-03T02:59:57;98430.59;;;14.38;100.00
61573;BME280;47465;43.094;12.434;2023-05-03T03:02:23;98417.84;;;14.24;100.00
61573;BME280;47465;43.094;12.434;2023-05-03T03:04:49;98425.97;;;14.23;100.00
61573;BME280;47465;43.094;12.434;2023-05-03T03:07:16;98439.97;;;14.28;100.00
61573;BME280;47465;43.094;12.434;2023-05-03T03:09:42;98447.50;;;14.38;100.00
61573;BME280;47465;43.094;12.434;2023-05-03T03:12:08;98427.97;;;14.17;100.00
61573;BME280;47465;43.094;12.434;2023-05-03T03:14:34;98446.34;;;14.25;100.00
61573;BME280;47465;43.094;12.434;2023-05-03T03:17:00;98473.38;;;14.38;100.00
61573;BME280;47465;43.094;12.434;2023-05-03T03:19:26;98464.09;;;14.26;100.00
61573;BME280;47465;43.094;12.434;2023-05-03T03:21:52;98469.63;;;14.23;100.00
61573;BME280;47465;43.094;12.434;2023-05-03T03:24:19;98460.72;;;14.23;100.00
61573;BME280;47465;43.094;12.434;2023-05-03T03:26:45;98443.16;;;14.17;100.00
61573;BME280;47465;43.094;12.434;2023-05-03T03:29:11;98451.81;;;14.22;100.00
61573;BME280;47465;43.094;12.434;2023-05-03T03:31:37;98445.31;;;14.28;100.00
61573;BME280;47465;43.094;12.434;2023-05-03T03:34:03;98432.31;;;14.20;100.00
61573;BME280;47465;43.094;12.434;2023-05-03T03:36:28;98481.88;;;14.46;100.00
61573;BME280;47465;43.094;12.434;2023-05-03T03:38:55;98484.22;;;14.54;100.00
61573;BME280;47465;43.094;12.434;2023-05-03T03:41:22;98450.50;;;14.31;100.00
61573;BME280;47465;43.094;12.434;2023-05-03T03:43:48;98448.00;;;14.28;100.00
61573;BME280;47465;43.094;12.434;2023-05-03T03:46:15;98465.47;;;14.35;100.00
61573;BME280;47465;43.094;12.434;2023-05-03T03:48:41;98467.06;;;14.39;100.00
61573;BME280;47465;43.094;12.434;2023-05-03T03:51:07;98446.75;;;14.35;100.00
61573;BME280;47465;43.094;12.434;2023-05-03T03:53:33;98455.28;;;14.43;100.00
61573;BME280;47465;43.094;12.434;2023-05-03T03:55:59;98451.97;;;14.38;100.00
61573;BME280;47465;43.094;12.434;2023-05-03T03:58:26;98470.91;;;14.52;99.99
61573;BME280;47465;43.094;12.434;2023-05-03T04:00:52;98492.63;;;14.65;99.46
61573;BME280;47465;43.094;12.434;2023-05-03T04:03:18;98502.19;;;14.71;99.36
61573;BME280;47465;43.094;12.434;2023-05-03T04:05:44;98484.09;;;14.57;99.37
61573;BME280;47465;43.094;12.434;2023-05-03T04:08:10;98520.06;;;14.70;99.77
61573;BME280;47465;43.094;12.434;2023-05-03T04:10:36;98512.38;;;14.63;99.87
61573;BME280;47465;43.094;12.434;2023-05-03T04:13:02;98502.16;;;14.52;100.00
61573;BME280;47465;43.094;12.434;2023-05-03T04:15:29;98492.59;;;14.46;100.00
61573;BME280;47465;43.094;12.434;2023-05-03T04:17:55;98510.94;;;14.55;100.00
61573;BME280;47465;43.094;12.434;2023-05-03T04:20:21;98527.47;;;14.64;100.00
61573;BME280;47465;43.094;12.434;2023-05-03T04:22:48;98523.31;;;14.58;100.00
61573;BME280;47465;43.094;12.434;2023-05-03T04:25:14;98532.69;;;14.67;99.84
61573;BME280;47465;43.094;12.434;2023-05-03T04:27:41;98520.88;;;14.52;100.00
61573;BME280;47465;43.094;12.434;2023-05-03T04:30:08;98527.09;;;14.52;100.00
61573;BME280;47465;43.094;12.434;2023-05-03T04:32:35;98552.50;;;14.63;99.78
61573;BME280;47465;43.094;12.434;2023-05-03T04:35:02;98549.19;;;14.57;99.78
61573;BME280;47465;43.094;12.434;2023-05-03T04:37:28;98555.13;;;14.64;98.82
61573;BME280;47465;43.094;12.434;2023-05-03T04:39:55;98540.63;;;14.49;99.41
61573;BME280;47465;43.094;12.434;2023-05-03T04:42:21;98568.41;;;14.66;98.76
61573;BME280;47465;43.094;12.434;2023-05-03T04:44:46;98564.81;;;14.67;98.29
61573;BME280;47465;43.094;12.434;2023-05-03T04:47:12;98576.59;;;14.63;98.20
61573;BME280;47465;43.094;12.434;2023-05-03T04:49:40;98539.03;;;14.45;98.58
61573;BME280;47465;43.094;12.434;2023-05-03T04:52:05;98570.16;;;14.67;97.96
61573;BME280;47465;43.094;12.434;2023-05-03T04:54:31;98569.31;;;14.66;97.39
61573;BME280;47465;43.094;12.434;2023-05-03T04:56:57;98564.63;;;14.51;97.55
61573;BME280;47465;43.094;12.434;2023-05-03T04:59:23;98587.09;;;14.67;96.96
61573;BME280;47465;43.094;12.434;2023-05-03T05:01:49;98588.38;;;14.58;96.93
61573;BME280;47465;43.094;12.434;2023-05-03T05:04:15;98600.63;;;14.64;96.27
61573;BME280;47465;43.094;12.434;2023-05-03T05:06:42;98591.84;;;14.61;96.01
61573;BME280;47465;43.094;12.434;2023-05-03T05:09:19;98586.75;;;14.54;95.92
61573;BME280;47465;43.094;12.434;2023-05-03T05:11:45;98607.63;;;14.67;96.03
61573;BME280;47465;43.094;12.434;2023-05-03T05:14:11;98604.09;;;14.66;95.05
61573;BME280;47465;43.094;12.434;2023-05-03T05:16:37;98607.75;;;14.64;94.93
61573;BME280;47465;43.094;12.434;2023-05-03T05:19:03;98609.81;;;14.77;93.87
61573;BME280;47465;43.094;12.434;2023-05-03T05:21:29;98621.31;;;14.79;93.10
61573;BME280;47465;43.094;12.434;2023-05-03T05:23:57;98611.63;;;14.77;92.12
61573;BME280;47465;43.094;12.434;2023-05-03T05:26:23;98607.94;;;14.79;91.47
61573;BME280;47465;43.094;12.434;2023-05-03T05:28:49;98582.59;;;14.68;91.02
61573;BME280;47465;43.094;12.434;2023-05-03T05:31:15;98620.38;;;14.99;90.00
61573;BME280;47465;43.094;12.434;2023-05-03T05:33:42;98602.44;;;15.02;89.21
61573;BME280;47465;43.094;12.434;2023-05-03T05:36:10;98621.34;;;14.98;88.63
61573;BME280;47465;43.094;12.434;2023-05-03T05:38:36;98616.63;;;15.04;89.33
61573;BME280;47465;43.094;12.434;2023-05-03T05:41:05;98613.94;;;15.04;88.41
61573;BME280;47465;43.094;12.434;2023-05-03T05:43:31;98620.66;;;15.12;87.92
61573;BME280;47465;43.094;12.434;2023-05-03T05:45:57;98599.59;;;15.05;86.59
61573;BME280;47465;43.094;12.434;2023-05-03T05:48:23;98615.31;;;15.12;86.52
61573;BME280;47465;43.094;12.434;2023-05-03T05:50:48;98625.38;;;15.07;87.13
61573;BME280;47465;43.094;12.434;2023-05-03T05:53:14;98605.03;;;15.03;86.78
61573;BME280;47465;43.094;12.434;2023-05-03T05:55:40;98620.09;;;15.06;87.42
61573;BME280;47465;43.094;12.434;2023-05-03T05:58:08;98641.06;;;15.15;87.24
61573;BME280;47465;43.094;12.434;2023-05-03T06:00:36;98616.03;;;14.97;87.47
61573;BME280;47465;43.094;12.434;2023-05-03T06:03:02;98621.97;;;15.04;87.42
61573;BME280;47465;43.094;12.434;2023-05-03T06:05:28;98650.06;;;15.14;87.37
61573;BME280;47465;43.094;12.434;2023-05-03T06:07:54;98634.34;;;15.06;87.26
61573;BME280;47465;43.094;12.434;2023-05-03T06:10:19;98645.19;;;15.22;87.55
61573;BME280;47465;43.094;12.434;2023-05-03T06:12:45;98652.94;;;15.28;87.38
61573;BME280;47465;43.094;12.434;2023-05-03T06:15:13;98656.56;;;15.46;87.36
61573;BME280;47465;43.094;12.434;2023-05-03T06:17:38;98678.19;;;15.41;87.10
61573;BME280;47465;43.094;12.434;2023-05-03T06:20:06;98684.91;;;15.50;87.49
61573;BME280;47465;43.094;12.434;2023-05-03T06:22:36;98672.81;;;15.41;86.88
61573;BME280;47465;43.094;12.434;2023-05-03T06:25:02;98684.34;;;15.44;86.60
61573;BME280;47465;43.094;12.434;2023-05-03T06:27:28;98659.88;;;15.32;86.05
61573;BME280;47465;43.094;12.434;2023-05-03T06:29:54;98674.72;;;15.39;86.37
61573;BME280;47465;43.094;12.434;2023-05-03T06:32:22;98669.44;;;15.38;86.75
61573;BME280;47465;43.094;12.434;2023-05-03T06:34:48;98692.28;;;15.64;85.77
61573;BME280;47465;43.094;12.434;2023-05-03T06:37:14;98689.84;;;15.59;85.74
61573;BME280;47465;43.094;12.434;2023-05-03T06:39:40;98675.13;;;15.68;85.80
61573;BME280;47465;43.094;12.434;2023-05-03T06:42:06;98690.53;;;15.63;85.98
61573;BME280;47465;43.094;12.434;2023-05-03T06:44:32;98703.31;;;15.77;85.34
61573;BME280;47465;43.094;12.434;2023-05-03T06:46:58;98704.22;;;15.95;85.29
61573;BME280;47465;43.094;12.434;2023-05-03T06:49:25;98707.81;;;15.94;85.76
61573;BME280;47465;43.094;12.434;2023-05-03T06:51:51;98692.09;;;16.22;82.97
61573;BME280;47465;43.094;12.434;2023-05-03T06:54:17;98704.28;;;15.93;83.87
61573;BME280;47465;43.094;12.434;2023-05-03T06:56:44;98693.44;;;16.31;82.42
61573;BME280;47465;43.094;12.434;2023-05-03T06:59:10;98704.53;;;16.23;83.31
61573;BME280;47465;43.094;12.434;2023-05-03T07:01:36;98704.16;;;15.96;83.79
61573;BME280;47465;43.094;12.434;2023-05-03T07:04:02;98681.06;;;16.11;83.53
61573;BME280;47465;43.094;12.434;2023-05-03T07:06:29;98687.81;;;16.18;82.27
61573;BME280;47465;43.094;12.434;2023-05-03T07:08:56;98717.47;;;16.33;81.71
61573;BME280;47465;43.094;12.434;2023-05-03T07:11:22;98711.22;;;16.67;81.92
61573;BME280;47465;43.094;12.434;2023-05-03T07:13:48;98693.25;;;16.52;81.28
61573;BME280;47465;43.094;12.434;2023-05-03T07:16:15;98684.03;;;17.24;77.78
61573;BME280;47465;43.094;12.434;2023-05-03T07:18:41;98679.41;;;17.74;74.75
61573;BME280;47465;43.094;12.434;2023-05-03T07:21:07;98708.19;;;17.72;74.13
61573;BME280;47465;43.094;12.434;2023-05-03T07:23:34;98704.81;;;17.36;74.86
61573;BME280;47465;43.094;12.434;2023-05-03T07:26:00;98728.50;;;17.45;75.83
61573;BME280;47465;43.094;12.434;2023-05-03T07:28:26;98706.53;;;17.06;77.26
61573;BME280;47465;43.094;12.434;2023-05-03T07:30:51;98719.81;;;16.91;78.08
61573;BME280;47465;43.094;12.434;2023-05-03T07:33:17;98706.94;;;16.98;77.06
61573;BME280;47465;43.094;12.434;2023-05-03T07:35:44;98732.41;;;16.91;76.41
61573;BME280;47465;43.094;12.434;2023-05-03T07:38:10;98731.31;;;16.60;77.78
61573;BME280;47465;43.094;12.434;2023-05-03T07:40:39;98724.97;;;16.61;78.39
61573;BME280;47465;43.094;12.434;2023-05-03T07:43:06;98731.56;;;16.38;78.79
61573;BME280;47465;43.094;12.434;2023-05-03T07:45:32;98734.72;;;16.29;80.21
61573;BME280;47465;43.094;12.434;2023-05-03T07:47:57;98727.91;;;16.56;80.19
61573;BME280;47465;43.094;12.434;2023-05-03T07:50:23;98728.22;;;16.50;78.05
61573;BME280;47465;43.094;12.434;2023-05-03T07:52:50;98762.31;;;16.31;79.54
61573;BME280;47465;43.094;12.434;2023-05-03T07:55:16;98726.25;;;16.19;80.16
61573;BME280;47465;43.094;12.434;2023-05-03T07:57:44;98728.88;;;16.38;80.12
61573;BME280;47465;43.094;12.434;2023-05-03T08:00:11;98722.53;;;16.21;81.13
61573;BME280;47465;43.094;12.434;2023-05-03T08:02:38;98734.94;;;16.41;80.33
61573;BME280;47465;43.094;12.434;2023-05-03T08:05:04;98739.06;;;16.31;80.80
61573;BME280;47465;43.094;12.434;2023-05-03T08:07:31;98739.91;;;16.14;81.02
61573;BME280;47465;43.094;12.434;2023-05-03T08:09:57;98720.56;;;16.42;80.90
61573;BME280;47465;43.094;12.434;2023-05-03T08:12:24;98741.66;;;16.68;79.70
61573;BME280;47465;43.094;12.434;2023-05-03T08:14:52;98727.28;;;16.86;79.36
61573;BME280;47465;43.094;12.434;2023-05-03T08:17:19;98735.63;;;16.62;77.85
61573;BME280;47465;43.094;12.434;2023-05-03T08:19:46;98751.22;;;17.07;78.68
61573;BME280;47465;43.094;12.434;2023-05-03T08:22:12;98725.84;;;16.96;77.57
61573;BME280;47465;43.094;12.434;2023-05-03T08:24:38;98737.13;;;17.03;75.56
61573;BME280;47465;43.094;12.434;2023-05-03T08:27:04;98768.25;;;16.72;78.19
61573;BME280;47465;43.094;12.434;2023-05-03T08:29:30;98732.97;;;16.80;77.44
61573;BME280;47465;43.094;12.434;2023-05-03T08:31:58;98760.53;;;17.17;76.55
61573;BME280;47465;43.094;12.434;2023-05-03T08:34:24;98776.09;;;16.59;78.42
61573;BME280;47465;43.094;12.434;2023-05-03T08:36:50;98761.66;;;16.08;81.32
61573;BME280;47465;43.094;12.434;2023-05-03T08:39:16;98743.31;;;16.35;80.07
61573;BME280;47465;43.094;12.434;2023-05-03T08:41:43;98763.59;;;16.58;79.79
61573;BME280;47465;43.094;12.434;2023-05-03T08:44:10;98779.44;;;16.46;79.74
61573;BME280;47465;43.094;12.434;2023-05-03T08:46:37;98756.19;;;16.46;80.04
61573;BME280;47465;43.094;12.434;2023-05-03T08:49:05;98761.69;;;16.78;81.08
61573;BME280;47465;43.094;12.434;2023-05-03T08:51:33;98751.41;;;17.03;80.84
61573;BME280;47465;43.094;12.434;2023-05-03T08:53:59;98781.22;;;16.81;81.27
61573;BME280;47465;43.094;12.434;2023-05-03T08:56:32;98775.97;;;16.43;83.08
61573;BME280;47465;43.094;12.434;2023-05-03T08:58:58;98757.28;;;16.59;81.90
61573;BME280;47465;43.094;12.434;2023-05-03T09:01:31;98793.44;;;16.87;82.54
61573;BME280;47465;43.094;12.434;2023-05-03T09:03:57;98808.38;;;16.75;83.02
61573;BME280;47465;43.094;12.434;2023-05-03T09:06:25;98776.31;;;16.72;82.52
61573;BME280;47465;43.094;12.434;2023-05-03T09:08:52;98785.56;;;16.84;81.19
61573;BME280;47465;43.094;12.434;2023-05-03T09:11:22;98795.44;;;17.01;83.88
61573;BME280;47465;43.094;12.434;2023-05-03T09:13:49;98786.75;;;16.96;81.82
61573;BME280;47465;43.094;12.434;2023-05-03T09:16:26;98803.50;;;17.01;85.44
61573;BME280;47465;43.094;12.434;2023-05-03T09:18:56;98798.19;;;16.99;86.01
61573;BME280;47465;43.094;12.434;2023-05-03T09:21:23;98796.44;;;16.46;85.99
61573;BME280;47465;43.094;12.434;2023-05-03T09:23:50;98809.50;;;16.89;88.71
61573;BME280;47465;43.094;12.434;2023-05-03T09:26:26;98803.63;;;16.98;85.71
61573;BME280;47465;43.094;12.434;2023-05-03T09:28:52;98811.00;;;16.94;82.77
61573;BME280;47465;43.094;12.434;2023-05-03T09:31:19;98792.28;;;16.93;79.82
61573;BME280;47465;43.094;12.434;2023-05-03T09:33:45;98811.38;;;17.04;82.04
61573;BME280;47465;43.094;12.434;2023-05-03T09:36:10;98814.56;;;17.28;83.74
61573;BME280;47465;43.094;12.434;2023-05-03T09:38:36;98803.34;;;17.37;80.56
61573;BME280;47465;43.094;12.434;2023-05-03T09:41:04;98814.47;;;17.63;81.12
61573;BME280;47465;43.094;12.434;2023-05-03T09:43:31;98799.84;;;17.84;77.75
61573;BME280;47465;43.094;12.434;2023-05-03T09:46:07;98805.47;;;17.80;76.08
61573;BME280;47465;43.094;12.434;2023-05-03T09:48:35;98798.28;;;17.80;77.25
61573;BME280;47465;43.094;12.434;2023-05-03T09:51:02;98806.09;;;18.17;74.91
61573;BME280;47465;43.094;12.434;2023-05-03T09:53:29;98805.88;;;18.52;74.10
61573;BME280;47465;43.094;12.434;2023-05-03T09:55:56;98816.69;;;18.82;72.85
61573;BME280;47465;43.094;12.434;2023-05-03T09:58:26;98799.50;;;18.68;71.37
61573;BME280;47465;43.094;12.434;2023-05-03T10:00:53;98790.63;;;18.82;70.62
61573;BME280;47465;43.094;12.434;2023-05-03T10:03:23;98807.53;;;18.54;69.31
61573;BME280;47465;43.094;12.434;2023-05-03T10:05:53;98822.13;;;18.50;72.46
61573;BME280;47465;43.094;12.434;2023-05-03T10:08:25;98808.28;;;18.26;70.23
61573;BME280;47465;43.094;12.434;2023-05-03T10:10:52;98805.59;;;18.10;70.43
61573;BME280;47465;43.094;12.434;2023-05-03T10:13:20;98800.84;;;18.15;71.06
61573;BME280;47465;43.094;12.434;2023-05-03T10:15:48;98783.16;;;17.78;72.13
61573;BME280;47465;43.094;12.434;2023-05-03T10:18:19;98795.75;;;17.77;71.60
61573;BME280;47465;43.094;12.434;2023-05-03T10:20:49;98788.47;;;17.79;71.53
61573;BME280;47465;43.094;12.434;2023-05-03T10:23:19;98815.50;;;17.94;71.48
61573;BME280;47465;43.094;12.434;2023-05-03T10:26:13;98818.63;;;18.18;71.63
61573;BME280;47465;43.094;12.434;2023-05-03T10:28:39;98797.41;;;18.27;71.34
61573;BME280;47465;43.094;12.434;2023-05-03T10:31:44;98826.81;;;18.46;71.09
61573;BME280;47465;43.094;12.434;2023-05-03T10:34:22;98803.38;;;18.48;69.51
61573;BME280;47465;43.094;12.434;2023-05-03T10:36:49;98810.97;;;18.10;69.76
61573;BME280;47465;43.094;12.434;2023-05-03T10:39:17;98798.63;;;17.74;72.42
61573;BME280;47465;43.094;12.434;2023-05-03T10:41:43;98800.16;;;17.96;75.04
61573;BME280;47465;43.094;12.434;2023-05-03T10:44:25;98798.84;;;18.03;76.07
61573;BME280;47465;43.094;12.434;2023-05-03T10:46:54;98805.97;;;18.50;72.87
61573;BME280;47465;43.094;12.434;2023-05-03T10:49:21;98799.88;;;18.00;74.56
61573;BME280;47465;43.094;12.434;2023-05-03T10:51:47;98790.91;;;18.00;75.94
61573;BME280;47465;43.094;12.434;2023-05-03T10:54:13;98801.28;;;17.58;74.80
61573;BME280;47465;43.094;12.434;2023-05-03T10:57:00;98815.66;;;17.91;71.68
61573;BME280;47465;43.094;12.434;2023-05-03T10:59:45;98797.88;;;17.88;71.75
61573;BME280;47465;43.094;12.434;2023-05-03T11:02:17;98786.59;;;18.13;70.49
61573;BME280;47465;43.094;12.434;2023-05-03T11:04:50;98786.28;;;18.34;68.26
61573;BME280;47465;43.094;12.434;2023-05-03T11:07:19;98795.38;;;18.47;68.46
61573;BME280;47465;43.094;12.434;2023-05-03T11:09:47;98769.94;;;18.67;66.62
61573;BME280;47465;43.094;12.434;2023-05-03T11:12:13;98793.16;;;18.70;68.53
61573;BME280;47465;43.094;12.434;2023-05-03T11:14:38;98769.06;;;18.52;69.50
61573;BME280;47465;43.094;12.434;2023-05-03T11:17:06;98773.66;;;18.50;68.81
61573;BME280;47465;43.094;12.434;2023-05-03T11:19:33;98794.56;;;18.61;68.64
61573;BME280;47465;43.094;12.434;2023-05-03T11:22:00;98780.91;;;18.34;65.57
61573;BME280;47465;43.094;12.434;2023-05-03T11:24:26;98808.94;;;18.76;67.06
61573;BME280;47465;43.094;12.434;2023-05-03T11:26:52;98811.38;;;18.50;67.33
61573;BME280;47465;43.094;12.434;2023-05-03T11:29:18;98795.47;;;18.76;64.60
61573;BME280;47465;43.094;12.434;2023-05-03T11:31:45;98792.25;;;18.55;66.55
61573;BME280;47465;43.094;12.434;2023-05-03T11:34:12;98788.16;;;18.47;65.09
61573;BME280;47465;43.094;12.434;2023-05-03T11:36:41;98820.75;;;18.89;64.02
61573;BME280;47465;43.094;12.434;2023-05-03T11:39:07;98797.03;;;19.24;64.00
61573;BME280;47465;43.094;12.434;2023-05-03T11:41:33;98810.00;;;19.03;63.05
61573;BME280;47465;43.094;12.434;2023-05-03T11:44:00;98808.78;;;18.79;64.81
61573;BME280;47465;43.094;12.434;2023-05-03T11:46:27;98806.81;;;18.97;63.20
61573;BME280;47465;43.094;12.434;2023-05-03T11:48:56;98799.69;;;19.10;64.26
61573;BME280;47465;43.094;12.434;2023-05-03T11:51:22;98818.13;;;19.18;65.13
61573;BME280;47465;43.094;12.434;2023-05-03T11:53:50;98815.59;;;19.15;63.27
61573;BME280;47465;43.094;12.434;2023-05-03T11:56:17;98801.06;;;18.26;65.52
61573;BME280;47465;43.094;12.434;2023-05-03T11:58:49;98821.59;;;18.59;66.16
61573;BME280;47465;43.094;12.434;2023-05-03T12:01:17;98817.91;;;18.60;66.26
61573;BME280;47465;43.094;12.434;2023-05-03T12:03:43;98808.25;;;18.42;64.13
61573;BME280;47465;43.094;12.434;2023-05-03T12:06:12;98829.41;;;18.64;64.14
61573;BME280;47465;43.094;12.434;2023-05-03T12:08:37;98819.03;;;18.42;64.00
61573;BME280;47465;43.094;12.434;2023-05-03T12:11:05;98815.88;;;18.50;63.01
61573;BME280;47465;43.094;12.434;2023-05-03T12:13:32;98828.19;;;18.70;62.60
61573;BME280;47465;43.094;12.434;2023-05-03T12:16:01;98830.47;;;18.76;64.04
61573;BME280;47465;43.094;12.434;2023-05-03T12:18:44;98800.34;;;18.69;62.46
61573;BME280;47465;43.094;12.434;2023-05-03T12:21:10;98828.84;;;18.73;62.56
61573;BME280;47465;43.094;12.434;2023-05-03T12:23:37;98824.97;;;18.93;61.80
61573;BME280;47465;43.094;12.434;2023-05-03T12:26:03;98801.34;;;18.98;61.83
61573;BME280;47465;43.094;12.434;2023-05-03T12:28:30;98799.44;;;19.29;61.55
61573;BME280;47465;43.094;12.434;2023-05-03T12:30:59;98793.97;;;19.31;60.92
61573;BME280;47465;43.094;12.434;2023-05-03T12:33:25;98795.09;;;19.26;61.99
61573;BME280;47465;43.094;12.434;2023-05-03T12:35:51;98781.53;;;19.42;61.44
61573;BME280;47465;43.094;12.434;2023-05-03T12:38:17;98807.81;;;19.24;61.67
61573;BME280;47465;43.094;12.434;2023-05-03T12:40:43;98787.09;;;19.54;60.36
61573;BME280;47465;43.094;12.434;2023-05-03T12:43:09;98820.28;;;19.70;60.79
61573;BME280;47465;43.094;12.434;2023-05-03T12:45:36;98804.16;;;19.40;61.14
61573;BME280;47465;43.094;12.434;2023-05-03T12:48:03;98800.28;;;19.29;62.20